Redig, South Dakota
Current Conditions -  °F | °C
As of 11:35 PM on Wednesday 22 Oct 2014 (Local Time) from KSPF Reporting Station
Clear Clear  
Wind Chill: 43°   Ceiling: Unl
Heat Index: 43°   Visibility: 10mi
Dew Point: 27°   Wind: 0mph
Humidity: 53%   Direction: NA
Pressure: 30.04"   Gusts: NA
Location:  45.27°N, 103.55°W
Report Text: KSPF 230535Z AUTO 00000KT 10SM CLR 06/M03 A3004 RMK AO2
Loading
Personal Weather Stations






























Interactive Weather Map
Tropical Storm Tracking
New forecast layout! Learn more

10-Day Weather Forecast

Advertisements
Track Severe Weather on mobile